sensor_id;sensor_type;location;lat;lon;timestamp;P1;durP1;ratioP1;P2;durP2;ratioP2
33760;SDS011;20084;47.912;19.044;2022-11-25T00:00:09;20.88;;;12.73;;
33760;SDS011;20084;47.912;19.044;2022-11-25T00:02:35;20.60;;;14.63;;
33760;SDS011;20084;47.912;19.044;2022-11-25T00:05:06;16.88;;;12.30;;
33760;SDS011;20084;47.912;19.044;2022-11-25T00:07:34;15.25;;;10.63;;
33760;SDS011;20084;47.912;19.044;2022-11-25T00:10:00;15.75;;;10.93;;
33760;SDS011;20084;47.912;19.044;2022-11-25T00:12:25;17.83;;;11.00;;
33760;SDS011;20084;47.912;19.044;2022-11-25T00:14:51;13.48;;;10.13;;
33760;SDS011;20084;47.912;19.044;2022-11-25T00:17:16;18.48;;;10.57;;
33760;SDS011;20084;47.912;19.044;2022-11-25T00:19:42;14.77;;;8.95;;
33760;SDS011;20084;47.912;19.044;2022-11-25T00:22:08;15.63;;;9.05;;
33760;SDS011;20084;47.912;19.044;2022-11-25T00:24:33;17.42;;;9.70;;
33760;SDS011;20084;47.912;19.044;2022-11-25T00:26:59;14.25;;;8.27;;
33760;SDS011;20084;47.912;19.044;2022-11-25T00:29:28;12.18;;;7.63;;
33760;SDS011;20084;47.912;19.044;2022-11-25T00:31:54;12.60;;;8.27;;
33760;SDS011;20084;47.912;19.044;2022-11-25T00:34:20;13.23;;;8.55;;
33760;SDS011;20084;47.912;19.044;2022-11-25T00:36:45;15.02;;;8.90;;
33760;SDS011;20084;47.912;19.044;2022-11-25T00:39:13;15.23;;;10.25;;
33760;SDS011;20084;47.912;19.044;2022-11-25T00:41:40;14.68;;;10.27;;
33760;SDS011;20084;47.912;19.044;2022-11-25T00:44:24;15.48;;;9.23;;
33760;SDS011;20084;47.912;19.044;2022-11-25T00:46:59;12.90;;;8.25;;
33760;SDS011;20084;47.912;19.044;2022-11-25T00:49:26;11.63;;;7.97;;
33760;SDS011;20084;47.912;19.044;2022-11-25T00:51:52;13.90;;;8.13;;
33760;SDS011;20084;47.912;19.044;2022-11-25T00:54:18;11.82;;;8.35;;
33760;SDS011;20084;47.912;19.044;2022-11-25T00:56:43;14.00;;;8.05;;
33760;SDS011;20084;47.912;19.044;2022-11-25T00:59:09;11.68;;;8.15;;
33760;SDS011;20084;47.912;19.044;2022-11-25T01:01:35;12.32;;;7.88;;
33760;SDS011;20084;47.912;19.044;2022-11-25T01:04:00;13.07;;;8.93;;
33760;SDS011;20084;47.912;19.044;2022-11-25T01:06:26;14.35;;;9.57;;
33760;SDS011;20084;47.912;19.044;2022-11-25T01:08:52;14.50;;;9.60;;
33760;SDS011;20084;47.912;19.044;2022-11-25T01:11:18;13.50;;;9.50;;
33760;SDS011;20084;47.912;19.044;2022-11-25T01:13:45;16.75;;;10.70;;
33760;SDS011;20084;47.912;19.044;2022-11-25T01:16:12;15.48;;;9.55;;
33760;SDS011;20084;47.912;19.044;2022-11-25T01:18:39;17.58;;;9.77;;
33760;SDS011;20084;47.912;19.044;2022-11-25T01:21:19;15.38;;;10.23;;
33760;SDS011;20084;47.912;19.044;2022-11-25T01:23:47;14.82;;;10.20;;
33760;SDS011;20084;47.912;19.044;2022-11-25T01:26:14;14.32;;;10.27;;
33760;SDS011;20084;47.912;19.044;2022-11-25T01:28:41;16.05;;;10.77;;
33760;SDS011;20084;47.912;19.044;2022-11-25T01:31:08;16.90;;;11.20;;
33760;SDS011;20084;47.912;19.044;2022-11-25T01:33:36;15.57;;;10.57;;
33760;SDS011;20084;47.912;19.044;2022-11-25T01:36:02;12.77;;;9.95;;
33760;SDS011;20084;47.912;19.044;2022-11-25T01:38:33;17.08;;;10.93;;
33760;SDS011;20084;47.912;19.044;2022-11-25T01:40:59;15.10;;;10.32;;
33760;SDS011;20084;47.912;19.044;2022-11-25T01:43:26;15.68;;;10.30;;
33760;SDS011;20084;47.912;19.044;2022-11-25T01:45:54;14.95;;;9.80;;
33760;SDS011;20084;47.912;19.044;2022-11-25T01:48:32;20.65;;;13.20;;
33760;SDS011;20084;47.912;19.044;2022-11-25T01:51:17;13.68;;;9.68;;
33760;SDS011;20084;47.912;19.044;2022-11-25T01:54:03;16.88;;;10.95;;
33760;SDS011;20084;47.912;19.044;2022-11-25T01:56:32;14.35;;;8.55;;
33760;SDS011;20084;47.912;19.044;2022-11-25T01:59:02;34.28;;;21.05;;
33760;SDS011;20084;47.912;19.044;2022-11-25T02:01:28;14.40;;;10.50;;
33760;SDS011;20084;47.912;19.044;2022-11-25T02:03:54;7.10;;;4.95;;
33760;SDS011;20084;47.912;19.044;2022-11-25T02:06:41;9.10;;;5.25;;
33760;SDS011;20084;47.912;19.044;2022-11-25T02:09:21;6.60;;;4.57;;
33760;SDS011;20084;47.912;19.044;2022-11-25T02:11:47;8.75;;;4.68;;
33760;SDS011;20084;47.912;19.044;2022-11-25T02:14:15;5.22;;;3.60;;
33760;SDS011;20084;47.912;19.044;2022-11-25T02:16:43;6.97;;;4.20;;
33760;SDS011;20084;47.912;19.044;2022-11-25T02:19:12;6.20;;;4.15;;
33760;SDS011;20084;47.912;19.044;2022-11-25T02:21:50;6.97;;;4.47;;
33760;SDS011;20084;47.912;19.044;2022-11-25T02:24:32;7.95;;;4.47;;
33760;SDS011;20084;47.912;19.044;2022-11-25T02:27:05;7.50;;;4.32;;
33760;SDS011;20084;47.912;19.044;2022-11-25T02:29:31;8.25;;;4.53;;
33760;SDS011;20084;47.912;19.044;2022-11-25T02:31:57;6.07;;;3.92;;
33760;SDS011;20084;47.912;19.044;2022-11-25T02:34:23;6.50;;;4.03;;
33760;SDS011;20084;47.912;19.044;2022-11-25T02:36:48;6.00;;;3.83;;
33760;SDS011;20084;47.912;19.044;2022-11-25T02:39:14;7.45;;;4.30;;
33760;SDS011;20084;47.912;19.044;2022-11-25T02:41:46;6.55;;;4.32;;
33760;SDS011;20084;47.912;19.044;2022-11-25T02:44:16;11.07;;;7.32;;
33760;SDS011;20084;47.912;19.044;2022-11-25T02:46:42;12.25;;;8.27;;
33760;SDS011;20084;47.912;19.044;2022-11-25T02:49:08;14.13;;;9.60;;
33760;SDS011;20084;47.912;19.044;2022-11-25T02:51:34;13.85;;;8.98;;
33760;SDS011;20084;47.912;19.044;2022-11-25T02:54:00;13.50;;;8.05;;
33760;SDS011;20084;47.912;19.044;2022-11-25T02:56:28;9.02;;;6.88;;
33760;SDS011;20084;47.912;19.044;2022-11-25T02:58:55;11.48;;;7.68;;
33760;SDS011;20084;47.912;19.044;2022-11-25T03:01:21;9.60;;;6.72;;
33760;SDS011;20084;47.912;19.044;2022-11-25T03:03:47;9.43;;;6.32;;
33760;SDS011;20084;47.912;19.044;2022-11-25T03:06:12;10.10;;;6.38;;
33760;SDS011;20084;47.912;19.044;2022-11-25T03:08:38;10.20;;;7.35;;
33760;SDS011;20084;47.912;19.044;2022-11-25T03:11:04;10.70;;;7.53;;
33760;SDS011;20084;47.912;19.044;2022-11-25T03:13:30;12.27;;;8.35;;
33760;SDS011;20084;47.912;19.044;2022-11-25T03:15:56;12.50;;;8.60;;
33760;SDS011;20084;47.912;19.044;2022-11-25T03:18:21;12.77;;;8.45;;
33760;SDS011;20084;47.912;19.044;2022-11-25T03:20:50;12.65;;;8.85;;
33760;SDS011;20084;47.912;19.044;2022-11-25T03:23:17;14.55;;;9.73;;
33760;SDS011;20084;47.912;19.044;2022-11-25T03:25:42;15.85;;;10.23;;
33760;SDS011;20084;47.912;19.044;2022-11-25T03:28:08;14.68;;;9.95;;
33760;SDS011;20084;47.912;19.044;2022-11-25T03:30:33;15.85;;;10.27;;
33760;SDS011;20084;47.912;19.044;2022-11-25T03:32:59;13.40;;;9.25;;
33760;SDS011;20084;47.912;19.044;2022-11-25T03:35:25;15.45;;;9.48;;
33760;SDS011;20084;47.912;19.044;2022-11-25T03:37:51;13.82;;;9.52;;
33760;SDS011;20084;47.912;19.044;2022-11-25T03:40:16;14.18;;;9.35;;
33760;SDS011;20084;47.912;19.044;2022-11-25T03:42:42;13.43;;;8.82;;
33760;SDS011;20084;47.912;19.044;2022-11-25T03:45:08;16.25;;;9.63;;
33760;SDS011;20084;47.912;19.044;2022-11-25T03:47:37;18.33;;;11.50;;
33760;SDS011;20084;47.912;19.044;2022-11-25T03:50:03;16.63;;;11.27;;
33760;SDS011;20084;47.912;19.044;2022-11-25T03:52:29;17.20;;;11.05;;
33760;SDS011;20084;47.912;19.044;2022-11-25T03:54:54;17.15;;;12.02;;
33760;SDS011;20084;47.912;19.044;2022-11-25T03:57:20;18.08;;;11.95;;
33760;SDS011;20084;47.912;19.044;2022-11-25T03:59:46;16.70;;;11.23;;
33760;SDS011;20084;47.912;19.044;2022-11-25T04:02:11;18.95;;;12.07;;
33760;SDS011;20084;47.912;19.044;2022-11-25T04:04:38;17.60;;;11.82;;
33760;SDS011;20084;47.912;19.044;2022-11-25T04:07:04;20.33;;;13.30;;
33760;SDS011;20084;47.912;19.044;2022-11-25T04:09:29;20.42;;;12.85;;
33760;SDS011;20084;47.912;19.044;2022-11-25T04:11:55;18.15;;;11.65;;
33760;SDS011;20084;47.912;19.044;2022-11-25T04:14:39;21.77;;;13.40;;
33760;SDS011;20084;47.912;19.044;2022-11-25T04:17:05;23.40;;;12.70;;
33760;SDS011;20084;47.912;19.044;2022-11-25T04:19:31;21.35;;;13.82;;
33760;SDS011;20084;47.912;19.044;2022-11-25T04:21:56;20.00;;;12.73;;
33760;SDS011;20084;47.912;19.044;2022-11-25T04:24:25;19.10;;;12.20;;
33760;SDS011;20084;47.912;19.044;2022-11-25T04:26:51;19.08;;;12.95;;
33760;SDS011;20084;47.912;19.044;2022-11-25T04:29:17;19.58;;;12.82;;
33760;SDS011;20084;47.912;19.044;2022-11-25T04:31:42;19.67;;;12.88;;
33760;SDS011;20084;47.912;19.044;2022-11-25T04:34:08;19.52;;;12.27;;
33760;SDS011;20084;47.912;19.044;2022-11-25T04:36:34;19.13;;;13.20;;
33760;SDS011;20084;47.912;19.044;2022-11-25T04:39:00;24.10;;;14.48;;
33760;SDS011;20084;47.912;19.044;2022-11-25T04:41:25;17.00;;;11.63;;
33760;SDS011;20084;47.912;19.044;2022-11-25T04:43:53;17.23;;;12.00;;
33760;SDS011;20084;47.912;19.044;2022-11-25T04:46:20;18.85;;;12.45;;
33760;SDS011;20084;47.912;19.044;2022-11-25T04:49:05;19.45;;;13.70;;
33760;SDS011;20084;47.912;19.044;2022-11-25T04:51:30;21.70;;;13.63;;
33760;SDS011;20084;47.912;19.044;2022-11-25T04:53:56;19.80;;;13.55;;
33760;SDS011;20084;47.912;19.044;2022-11-25T04:56:22;19.67;;;12.10;;
33760;SDS011;20084;47.912;19.044;2022-11-25T04:58:48;20.45;;;12.48;;
33760;SDS011;20084;47.912;19.044;2022-11-25T05:01:33;22.77;;;12.82;;
33760;SDS011;20084;47.912;19.044;2022-11-25T05:03:58;20.90;;;12.40;;
33760;SDS011;20084;47.912;19.044;2022-11-25T05:06:24;20.17;;;13.27;;
33760;SDS011;20084;47.912;19.044;2022-11-25T05:08:50;22.02;;;11.52;;
33760;SDS011;20084;47.912;19.044;2022-11-25T05:11:16;13.88;;;9.77;;
33760;SDS011;20084;47.912;19.044;2022-11-25T05:13:42;19.02;;;10.15;;
33760;SDS011;20084;47.912;19.044;2022-11-25T05:16:07;18.52;;;10.35;;
33760;SDS011;20084;47.912;19.044;2022-11-25T05:18:33;20.15;;;12.00;;
33760;SDS011;20084;47.912;19.044;2022-11-25T05:21:02;20.38;;;12.57;;
33760;SDS011;20084;47.912;19.044;2022-11-25T05:23:29;22.50;;;13.48;;
33760;SDS011;20084;47.912;19.044;2022-11-25T05:25:58;14.15;;;9.60;;
33760;SDS011;20084;47.912;19.044;2022-11-25T05:28:25;17.73;;;10.18;;
33760;SDS011;20084;47.912;19.044;2022-11-25T05:30:52;16.63;;;11.85;;
33760;SDS011;20084;47.912;19.044;2022-11-25T05:33:17;19.25;;;11.75;;
33760;SDS011;20084;47.912;19.044;2022-11-25T05:35:43;19.15;;;12.30;;
33760;SDS011;20084;47.912;19.044;2022-11-25T05:38:08;27.80;;;18.95;;
33760;SDS011;20084;47.912;19.044;2022-11-25T05:40:34;33.15;;;19.63;;
33760;SDS011;20084;47.912;19.044;2022-11-25T05:43:00;22.85;;;15.25;;
33760;SDS011;20084;47.912;19.044;2022-11-25T05:45:27;18.17;;;12.20;;
33760;SDS011;20084;47.912;19.044;2022-11-25T05:47:53;19.42;;;12.50;;
33760;SDS011;20084;47.912;19.044;2022-11-25T05:50:19;20.30;;;13.30;;
33760;SDS011;20084;47.912;19.044;2022-11-25T05:52:44;25.80;;;16.98;;
33760;SDS011;20084;47.912;19.044;2022-11-25T05:55:10;33.28;;;20.40;;
33760;SDS011;20084;47.912;19.044;2022-11-25T05:57:35;29.25;;;18.48;;
33760;SDS011;20084;47.912;19.044;2022-11-25T06:00:01;29.13;;;19.05;;
33760;SDS011;20084;47.912;19.044;2022-11-25T06:02:28;34.40;;;21.95;;
33760;SDS011;20084;47.912;19.044;2022-11-25T06:04:53;25.30;;;15.85;;
33760;SDS011;20084;47.912;19.044;2022-11-25T06:07:19;14.10;;;8.80;;
33760;SDS011;20084;47.912;19.044;2022-11-25T06:09:44;13.82;;;8.00;;
33760;SDS011;20084;47.912;19.044;2022-11-25T06:12:10;16.75;;;11.02;;
33760;SDS011;20084;47.912;19.044;2022-11-25T06:14:35;13.70;;;8.35;;
33760;SDS011;20084;47.912;19.044;2022-11-25T06:17:01;21.48;;;13.75;;
33760;SDS011;20084;47.912;19.044;2022-11-25T06:19:28;22.63;;;12.75;;
33760;SDS011;20084;47.912;19.044;2022-11-25T06:21:54;25.88;;;14.73;;
33760;SDS011;20084;47.912;19.044;2022-11-25T06:24:19;29.40;;;18.02;;
33760;SDS011;20084;47.912;19.044;2022-11-25T06:26:45;32.65;;;21.58;;
33760;SDS011;20084;47.912;19.044;2022-11-25T06:29:10;34.28;;;19.95;;
33760;SDS011;20084;47.912;19.044;2022-11-25T06:31:36;41.90;;;26.48;;
33760;SDS011;20084;47.912;19.044;2022-11-25T06:34:01;37.03;;;24.75;;
33760;SDS011;20084;47.912;19.044;2022-11-25T06:36:27;36.80;;;22.48;;
33760;SDS011;20084;47.912;19.044;2022-11-25T06:38:53;56.13;;;34.88;;
33760;SDS011;20084;47.912;19.044;2022-11-25T06:41:19;62.40;;;39.90;;
33760;SDS011;20084;47.912;19.044;2022-11-25T06:43:46;38.30;;;25.55;;
33760;SDS011;20084;47.912;19.044;2022-11-25T06:46:16;25.83;;;17.08;;
33760;SDS011;20084;47.912;19.044;2022-11-25T06:48:43;30.55;;;19.33;;
33760;SDS011;20084;47.912;19.044;2022-11-25T06:51:09;35.15;;;22.02;;
33760;SDS011;20084;47.912;19.044;2022-11-25T06:53:36;17.50;;;11.70;;
33760;SDS011;20084;47.912;19.044;2022-11-25T06:58:28;24.55;;;16.13;;
33760;SDS011;20084;47.912;19.044;2022-11-25T07:00:59;24.48;;;17.98;;
33760;SDS011;20084;47.912;19.044;2022-11-25T07:03:45;42.90;;;25.20;;
33760;SDS011;20084;47.912;19.044;2022-11-25T07:06:12;32.00;;;19.58;;
33760;SDS011;20084;47.912;19.044;2022-11-25T07:08:39;24.08;;;17.30;;
33760;SDS011;20084;47.912;19.044;2022-11-25T07:11:07;23.13;;;15.65;;
33760;SDS011;20084;47.912;19.044;2022-11-25T07:13:39;26.55;;;16.80;;
33760;SDS011;20084;47.912;19.044;2022-11-25T07:16:05;24.95;;;17.38;;
33760;SDS011;20084;47.912;19.044;2022-11-25T07:18:32;28.95;;;19.05;;
33760;SDS011;20084;47.912;19.044;2022-11-25T07:21:03;28.48;;;19.42;;
33760;SDS011;20084;47.912;19.044;2022-11-25T07:23:35;38.92;;;20.00;;
33760;SDS011;20084;47.912;19.044;2022-11-25T07:26:05;30.33;;;19.00;;
33760;SDS011;20084;47.912;19.044;2022-11-25T07:28:33;29.05;;;18.42;;
33760;SDS011;20084;47.912;19.044;2022-11-25T07:33:32;27.92;;;18.92;;
33760;SDS011;20084;47.912;19.044;2022-11-25T07:36:02;27.00;;;18.05;;
33760;SDS011;20084;47.912;19.044;2022-11-25T07:38:29;23.65;;;16.17;;
33760;SDS011;20084;47.912;19.044;2022-11-25T07:40:55;23.52;;;16.92;;
33760;SDS011;20084;47.912;19.044;2022-11-25T07:43:21;27.42;;;17.27;;
33760;SDS011;20084;47.912;19.044;2022-11-25T07:45:46;25.38;;;16.65;;
33760;SDS011;20084;47.912;19.044;2022-11-25T07:48:12;24.73;;;16.17;;
33760;SDS011;20084;47.912;19.044;2022-11-25T07:50:38;25.70;;;18.02;;
33760;SDS011;20084;47.912;19.044;2022-11-25T07:53:03;29.60;;;20.40;;
33760;SDS011;20084;47.912;19.044;2022-11-25T07:55:29;26.85;;;18.33;;
33760;SDS011;20084;47.912;19.044;2022-11-25T07:57:54;26.58;;;17.73;;
33760;SDS011;20084;47.912;19.044;2022-11-25T08:00:20;24.45;;;17.30;;
33760;SDS011;20084;47.912;19.044;2022-11-25T08:02:46;23.80;;;16.20;;
33760;SDS011;20084;47.912;19.044;2022-11-25T08:05:12;24.63;;;16.63;;
33760;SDS011;20084;47.912;19.044;2022-11-25T08:07:38;22.35;;;15.50;;
33760;SDS011;20084;47.912;19.044;2022-11-25T08:10:03;24.88;;;16.02;;
33760;SDS011;20084;47.912;19.044;2022-11-25T08:12:30;23.63;;;15.60;;
33760;SDS011;20084;47.912;19.044;2022-11-25T08:14:56;21.67;;;15.90;;
33760;SDS011;20084;47.912;19.044;2022-11-25T08:17:22;22.05;;;14.38;;
33760;SDS011;20084;47.912;19.044;2022-11-25T08:19:47;21.00;;;14.63;;
33760;SDS011;20084;47.912;19.044;2022-11-25T08:22:13;20.70;;;15.10;;
33760;SDS011;20084;47.912;19.044;2022-11-25T08:24:38;23.58;;;16.15;;
33760;SDS011;20084;47.912;19.044;2022-11-25T08:27:04;26.33;;;17.40;;
33760;SDS011;20084;47.912;19.044;2022-11-25T08:29:30;29.05;;;16.17;;
33760;SDS011;20084;47.912;19.044;2022-11-25T08:31:55;20.95;;;15.50;;
33760;SDS011;20084;47.912;19.044;2022-11-25T08:34:22;20.17;;;14.57;;
33760;SDS011;20084;47.912;19.044;2022-11-25T08:36:48;21.92;;;14.98;;
33760;SDS011;20084;47.912;19.044;2022-11-25T08:39:15;20.90;;;14.27;;
33760;SDS011;20084;47.912;19.044;2022-11-25T08:41:41;24.95;;;15.27;;
33760;SDS011;20084;47.912;19.044;2022-11-25T08:44:07;20.65;;;15.23;;
33760;SDS011;20084;47.912;19.044;2022-11-25T08:46:34;20.88;;;14.07;;
33760;SDS011;20084;47.912;19.044;2022-11-25T08:49:02;19.63;;;13.23;;
33760;SDS011;20084;47.912;19.044;2022-11-25T08:51:30;18.20;;;13.65;;
33760;SDS011;20084;47.912;19.044;2022-11-25T08:53:56;19.83;;;13.32;;
33760;SDS011;20084;47.912;19.044;2022-11-25T08:56:23;17.48;;;12.18;;
33760;SDS011;20084;47.912;19.044;2022-11-25T08:58:49;18.52;;;12.65;;
33760;SDS011;20084;47.912;19.044;2022-11-25T09:01:16;18.10;;;13.57;;
33760;SDS011;20084;47.912;19.044;2022-11-25T09:03:44;16.77;;;12.32;;
33760;SDS011;20084;47.912;19.044;2022-11-25T09:06:14;21.45;;;12.98;;
33760;SDS011;20084;47.912;19.044;2022-11-25T09:08:40;17.88;;;12.45;;
33760;SDS011;20084;47.912;19.044;2022-11-25T09:19:36;18.60;;;14.20;;
33760;SDS011;20084;47.912;19.044;2022-11-25T09:22:02;18.48;;;12.07;;
33760;SDS011;20084;47.912;19.044;2022-11-25T09:24:28;17.00;;;12.60;;
33760;SDS011;20084;47.912;19.044;2022-11-25T09:26:53;17.50;;;12.90;;
33760;SDS011;20084;47.912;19.044;2022-11-25T09:29:19;20.33;;;14.23;;
33760;SDS011;20084;47.912;19.044;2022-11-25T09:31:45;18.35;;;13.55;;
33760;SDS011;20084;47.912;19.044;2022-11-25T09:34:10;16.27;;;12.35;;
33760;SDS011;20084;47.912;19.044;2022-11-25T09:36:36;20.20;;;13.85;;
33760;SDS011;20084;47.912;19.044;2022-11-25T09:39:02;20.95;;;15.10;;
33760;SDS011;20084;47.912;19.044;2022-11-25T09:51:09;17.90;;;12.95;;
33760;SDS011;20084;47.912;19.044;2022-11-25T09:53:46;18.73;;;13.38;;
33760;SDS011;20084;47.912;19.044;2022-11-25T09:56:40;17.77;;;13.95;;
33760;SDS011;20084;47.912;19.044;2022-11-25T10:04:26;21.05;;;15.25;;
33760;SDS011;20084;47.912;19.044;2022-11-25T10:06:58;20.58;;;14.32;;
33760;SDS011;20084;47.912;19.044;2022-11-25T10:09:27;20.20;;;12.65;;
33760;SDS011;20084;47.912;19.044;2022-11-25T10:12:02;18.65;;;13.40;;
33760;SDS011;20084;47.912;19.044;2022-11-25T10:14:48;18.27;;;13.47;;
33760;SDS011;20084;47.912;19.044;2022-11-25T10:19:53;26.05;;;12.80;;
33760;SDS011;20084;47.912;19.044;2022-11-25T10:24:47;21.17;;;15.80;;
33760;SDS011;20084;47.912;19.044;2022-11-25T10:27:21;16.90;;;12.80;;
33760;SDS011;20084;47.912;19.044;2022-11-25T10:30:01;17.92;;;13.57;;
33760;SDS011;20084;47.912;19.044;2022-11-25T10:32:40;16.33;;;12.23;;
33760;SDS011;20084;47.912;19.044;2022-11-25T10:35:29;18.58;;;13.25;;
33760;SDS011;20084;47.912;19.044;2022-11-25T10:38:00;19.65;;;12.98;;
33760;SDS011;20084;47.912;19.044;2022-11-25T10:40:28;16.83;;;12.40;;
33760;SDS011;20084;47.912;19.044;2022-11-25T10:42:53;16.55;;;11.45;;
33760;SDS011;20084;47.912;19.044;2022-11-25T10:45:21;13.57;;;10.55;;
33760;SDS011;20084;47.912;19.044;2022-11-25T10:48:09;14.02;;;10.73;;
33760;SDS011;20084;47.912;19.044;2022-11-25T10:57:00;14.20;;;10.23;;
33760;SDS011;20084;47.912;19.044;2022-11-25T10:59:31;12.23;;;10.15;;
33760;SDS011;20084;47.912;19.044;2022-11-25T11:02:12;14.32;;;12.13;;
33760;SDS011;20084;47.912;19.044;2022-11-25T11:07:41;12.95;;;9.90;;
33760;SDS011;20084;47.912;19.044;2022-11-25T11:10:24;12.90;;;10.02;;
33760;SDS011;20084;47.912;19.044;2022-11-25T11:15:25;15.02;;;10.07;;
33760;SDS011;20084;47.912;19.044;2022-11-25T11:17:53;13.27;;;10.30;;
33760;SDS011;20084;47.912;19.044;2022-11-25T11:20:21;14.15;;;10.50;;
33760;SDS011;20084;47.912;19.044;2022-11-25T11:23:00;12.38;;;10.52;;
33760;SDS011;20084;47.912;19.044;2022-11-25T11:25:30;12.18;;;8.70;;
33760;SDS011;20084;47.912;19.044;2022-11-25T11:27:57;14.50;;;11.00;;
33760;SDS011;20084;47.912;19.044;2022-11-25T11:30:27;12.00;;;8.93;;
33760;SDS011;20084;47.912;19.044;2022-11-25T11:36:00;11.07;;;8.45;;
33760;SDS011;20084;47.912;19.044;2022-11-25T11:38:48;10.30;;;7.15;;
33760;SDS011;20084;47.912;19.044;2022-11-25T11:44:16;4.95;;;4.45;;
33760;SDS011;20084;47.912;19.044;2022-11-25T11:49:34;4.93;;;4.00;;
33760;SDS011;20084;47.912;19.044;2022-11-25T11:54:44;4.35;;;3.63;;
33760;SDS011;20084;47.912;19.044;2022-11-25T11:57:25;7.07;;;4.03;;
33760;SDS011;20084;47.912;19.044;2022-11-25T12:00:05;14.07;;;7.85;;
33760;SDS011;20084;47.912;19.044;2022-11-25T12:02:48;9.27;;;6.60;;
33760;SDS011;20084;47.912;19.044;2022-11-25T12:05:37;9.13;;;5.60;;
33760;SDS011;20084;47.912;19.044;2022-11-25T12:08:24;9.13;;;6.18;;
33760;SDS011;20084;47.912;19.044;2022-11-25T12:10:55;19.25;;;12.65;;
33760;SDS011;20084;47.912;19.044;2022-11-25T12:13:32;7.47;;;5.35;;
33760;SDS011;20084;47.912;19.044;2022-11-25T12:16:26;12.90;;;8.90;;
33760;SDS011;20084;47.912;19.044;2022-11-25T12:18:55;13.35;;;9.55;;
33760;SDS011;20084;47.912;19.044;2022-11-25T12:21:32;5.72;;;4.70;;
33760;SDS011;20084;47.912;19.044;2022-11-25T12:26:54;4.68;;;3.20;;
33760;SDS011;20084;47.912;19.044;2022-11-25T12:32:17;4.97;;;3.75;;
33760;SDS011;20084;47.912;19.044;2022-11-25T12:35:04;7.78;;;5.35;;
33760;SDS011;20084;47.912;19.044;2022-11-25T12:37:38;9.25;;;6.82;;
33760;SDS011;20084;47.912;19.044;2022-11-25T12:40:41;5.97;;;4.70;;
33760;SDS011;20084;47.912;19.044;2022-11-25T12:45:45;5.80;;;4.10;;
33760;SDS011;20084;47.912;19.044;2022-11-25T12:48:15;5.55;;;4.10;;
33760;SDS011;20084;47.912;19.044;2022-11-25T12:50:45;4.85;;;3.60;;
33760;SDS011;20084;47.912;19.044;2022-11-25T12:53:27;4.95;;;2.88;;
33760;SDS011;20084;47.912;19.044;2022-11-25T12:56:23;4.97;;;3.92;;
33760;SDS011;20084;47.912;19.044;2022-11-25T13:02:07;5.18;;;4.15;;
33760;SDS011;20084;47.912;19.044;2022-11-25T13:05:04;7.63;;;4.40;;
33760;SDS011;20084;47.912;19.044;2022-11-25T13:10:45;15.02;;;9.77;;
33760;SDS011;20084;47.912;19.044;2022-11-25T13:15:56;6.10;;;3.15;;
33760;SDS011;20084;47.912;19.044;2022-11-25T13:18:23;4.70;;;3.40;;
33760;SDS011;20084;47.912;19.044;2022-11-25T13:20:52;4.80;;;3.70;;
33760;SDS011;20084;47.912;19.044;2022-11-25T13:23:20;7.72;;;3.50;;
33760;SDS011;20084;47.912;19.044;2022-11-25T13:25:48;5.72;;;4.13;;
33760;SDS011;20084;47.912;19.044;2022-11-25T13:28:35;5.63;;;3.40;;
33760;SDS011;20084;47.912;19.044;2022-11-25T13:31:53;5.18;;;3.25;;
33760;SDS011;20084;47.912;19.044;2022-11-25T13:36:24;5.97;;;3.10;;
33760;SDS011;20084;47.912;19.044;2022-11-25T13:39:10;6.45;;;3.63;;
33760;SDS011;20084;47.912;19.044;2022-11-25T13:42:01;6.25;;;3.15;;
33760;SDS011;20084;47.912;19.044;2022-11-25T13:44:52;5.88;;;4.20;;
33760;SDS011;20084;47.912;19.044;2022-11-25T13:47:21;6.25;;;3.40;;
33760;SDS011;20084;47.912;19.044;2022-11-25T13:54:42;5.88;;;4.22;;
33760;SDS011;20084;47.912;19.044;2022-11-25T14:26:59;12.40;;;7.50;;
33760;SDS011;20084;47.912;19.044;2022-11-25T14:29:34;10.57;;;8.23;;
33760;SDS011;20084;47.912;19.044;2022-11-25T14:32:06;10.15;;;8.10;;
33760;SDS011;20084;47.912;19.044;2022-11-25T14:37:25;10.75;;;8.32;;
33760;SDS011;20084;47.912;19.044;2022-11-25T14:42:39;11.63;;;8.63;;
33760;SDS011;20084;47.912;19.044;2022-11-25T14:45:28;11.02;;;9.05;;
33760;SDS011;20084;47.912;19.044;2022-11-25T14:47:55;12.77;;;8.75;;
33760;SDS011;20084;47.912;19.044;2022-11-25T14:50:21;10.82;;;8.32;;
33760;SDS011;20084;47.912;19.044;2022-11-25T14:52:47;9.80;;;7.45;;
33760;SDS011;20084;47.912;19.044;2022-11-25T14:55:25;10.35;;;8.18;;
33760;SDS011;20084;47.912;19.044;2022-11-25T14:57:53;12.70;;;8.68;;
33760;SDS011;20084;47.912;19.044;2022-11-25T15:00:20;13.65;;;9.65;;
33760;SDS011;20084;47.912;19.044;2022-11-25T15:05:20;9.98;;;8.40;;
33760;SDS011;20084;47.912;19.044;2022-11-25T15:08:00;11.50;;;7.85;;
33760;SDS011;20084;47.912;19.044;2022-11-25T15:10:30;13.13;;;8.45;;
33760;SDS011;20084;47.912;19.044;2022-11-25T15:16:17;19.40;;;12.45;;
33760;SDS011;20084;47.912;19.044;2022-11-25T15:18:49;19.00;;;13.77;;
33760;SDS011;20084;47.912;19.044;2022-11-25T15:21:21;17.02;;;11.82;;
33760;SDS011;20084;47.912;19.044;2022-11-25T15:23:51;18.02;;;11.40;;
33760;SDS011;20084;47.912;19.044;2022-11-25T15:26:19;13.20;;;10.35;;
33760;SDS011;20084;47.912;19.044;2022-11-25T15:29:09;14.23;;;10.02;;
33760;SDS011;20084;47.912;19.044;2022-11-25T15:31:36;15.50;;;10.82;;
33760;SDS011;20084;47.912;19.044;2022-11-25T15:34:12;15.60;;;10.98;;
33760;SDS011;20084;47.912;19.044;2022-11-25T15:36:39;17.40;;;11.65;;
33760;SDS011;20084;47.912;19.044;2022-11-25T15:39:15;14.23;;;10.25;;
33760;SDS011;20084;47.912;19.044;2022-11-25T15:41:48;13.35;;;10.60;;
33760;SDS011;20084;47.912;19.044;2022-11-25T15:44:37;17.05;;;11.73;;
33760;SDS011;20084;47.912;19.044;2022-11-25T15:47:21;17.55;;;11.23;;
33760;SDS011;20084;47.912;19.044;2022-11-25T15:49:49;15.43;;;11.68;;
33760;SDS011;20084;47.912;19.044;2022-11-25T15:52:24;62.90;;;44.58;;
33760;SDS011;20084;47.912;19.044;2022-11-25T15:54:54;51.08;;;38.25;;
33760;SDS011;20084;47.912;19.044;2022-11-25T15:57:28;28.92;;;21.70;;
33760;SDS011;20084;47.912;19.044;2022-11-25T16:02:29;10.82;;;7.05;;
33760;SDS011;20084;47.912;19.044;2022-11-25T16:07:36;9.70;;;7.65;;
33760;SDS011;20084;47.912;19.044;2022-11-25T16:15:50;8.32;;;4.95;;
33760;SDS011;20084;47.912;19.044;2022-11-25T16:18:23;10.32;;;6.75;;
33760;SDS011;20084;47.912;19.044;2022-11-25T16:20:56;10.13;;;6.97;;
33760;SDS011;20084;47.912;19.044;2022-11-25T16:23:25;9.57;;;7.05;;
33760;SDS011;20084;47.912;19.044;2022-11-25T16:26:00;9.57;;;7.22;;
33760;SDS011;20084;47.912;19.044;2022-11-25T16:28:29;5.75;;;4.47;;
33760;SDS011;20084;47.912;19.044;2022-11-25T16:30:55;5.95;;;4.45;;
33760;SDS011;20084;47.912;19.044;2022-11-25T16:33:23;10.20;;;4.20;;
33760;SDS011;20084;47.912;19.044;2022-11-25T16:35:49;6.07;;;4.03;;
33760;SDS011;20084;47.912;19.044;2022-11-25T16:38:15;5.93;;;4.22;;
33760;SDS011;20084;47.912;19.044;2022-11-25T16:40:40;5.05;;;4.10;;
33760;SDS011;20084;47.912;19.044;2022-11-25T16:43:12;6.00;;;3.72;;